sensor_id;sensor_type;location;lat;lon;timestamp;P1;durP1;ratioP1;P2;durP2;ratioP2
15633;SDS011;14654;48.898;8.308;2022-09-12T00:00:27;7.97;;;7.37;;
15633;SDS011;14654;48.898;8.308;2022-09-12T00:02:56;7.73;;;7.13;;
15633;SDS011;14654;48.898;8.308;2022-09-12T00:05:23;7.77;;;7.20;;
15633;SDS011;14654;48.898;8.308;2022-09-12T00:07:48;7.07;;;6.47;;
15633;SDS011;14654;48.898;8.308;2022-09-12T00:10:14;7.53;;;7.00;;
15633;SDS011;14654;48.898;8.308;2022-09-12T00:12:39;7.13;;;6.63;;
15633;SDS011;14654;48.898;8.308;2022-09-12T00:15:05;7.13;;;6.53;;
15633;SDS011;14654;48.898;8.308;2022-09-12T00:17:34;6.90;;;6.30;;
15633;SDS011;14654;48.898;8.308;2022-09-12T00:20:01;7.47;;;6.93;;
15633;SDS011;14654;48.898;8.308;2022-09-12T00:22:26;7.10;;;6.50;;
15633;SDS011;14654;48.898;8.308;2022-09-12T00:24:51;7.40;;;6.90;;
15633;SDS011;14654;48.898;8.308;2022-09-12T00:27:17;7.40;;;6.60;;
15633;SDS011;14654;48.898;8.308;2022-09-12T00:29:42;6.33;;;5.83;;
15633;SDS011;14654;48.898;8.308;2022-09-12T00:32:08;7.03;;;6.50;;
15633;SDS011;14654;48.898;8.308;2022-09-12T00:34:33;6.47;;;5.97;;
15633;SDS011;14654;48.898;8.308;2022-09-12T00:36:58;7.00;;;6.43;;
15633;SDS011;14654;48.898;8.308;2022-09-12T00:39:24;6.63;;;6.07;;
15633;SDS011;14654;48.898;8.308;2022-09-12T00:41:49;6.70;;;6.30;;
15633;SDS011;14654;48.898;8.308;2022-09-12T00:46:43;6.60;;;5.90;;
15633;SDS011;14654;48.898;8.308;2022-09-12T00:49:14;6.73;;;6.17;;
15633;SDS011;14654;48.898;8.308;2022-09-12T00:51:52;7.47;;;6.90;;
15633;SDS011;14654;48.898;8.308;2022-09-12T00:54:23;6.60;;;6.20;;
15633;SDS011;14654;48.898;8.308;2022-09-12T00:56:54;6.43;;;6.03;;
15633;SDS011;14654;48.898;8.308;2022-09-12T00:59:32;6.27;;;5.87;;
15633;SDS011;14654;48.898;8.308;2022-09-12T01:02:02;6.23;;;5.73;;
15633;SDS011;14654;48.898;8.308;2022-09-12T01:04:27;6.70;;;6.10;;
15633;SDS011;14654;48.898;8.308;2022-09-12T01:06:54;6.80;;;6.23;;
15633;SDS011;14654;48.898;8.308;2022-09-12T01:09:22;6.73;;;6.23;;
15633;SDS011;14654;48.898;8.308;2022-09-12T01:11:49;7.00;;;6.40;;
15633;SDS011;14654;48.898;8.308;2022-09-12T01:14:16;7.20;;;6.60;;
15633;SDS011;14654;48.898;8.308;2022-09-12T01:16:43;7.67;;;7.07;;
15633;SDS011;14654;48.898;8.308;2022-09-12T01:39:40;7.13;;;6.63;;
15633;SDS011;14654;48.898;8.308;2022-09-12T01:44:53;7.97;;;7.47;;
15633;SDS011;14654;48.898;8.308;2022-09-12T01:47:30;7.90;;;7.30;;
15633;SDS011;14654;48.898;8.308;2022-09-12T01:52:41;7.57;;;6.97;;
15633;SDS011;14654;48.898;8.308;2022-09-12T01:58:03;7.73;;;7.13;;
15633;SDS011;14654;48.898;8.308;2022-09-12T02:00:32;7.77;;;7.13;;
15633;SDS011;14654;48.898;8.308;2022-09-12T02:03:07;7.57;;;6.97;;
15633;SDS011;14654;48.898;8.308;2022-09-12T02:05:38;7.50;;;6.87;;
15633;SDS011;14654;48.898;8.308;2022-09-12T02:08:08;7.07;;;6.57;;
15633;SDS011;14654;48.898;8.308;2022-09-12T02:11:11;6.83;;;6.33;;
15633;SDS011;14654;48.898;8.308;2022-09-12T02:13:40;7.67;;;7.07;;
15633;SDS011;14654;48.898;8.308;2022-09-12T02:16:09;7.53;;;6.90;;
15633;SDS011;14654;48.898;8.308;2022-09-12T02:18:38;7.70;;;7.10;;
15633;SDS011;14654;48.898;8.308;2022-09-12T02:21:14;8.07;;;7.37;;
15633;SDS011;14654;48.898;8.308;2022-09-12T02:23:44;8.47;;;7.73;;
15633;SDS011;14654;48.898;8.308;2022-09-12T02:26:19;7.90;;;7.30;;
15633;SDS011;14654;48.898;8.308;2022-09-12T02:28:48;8.53;;;7.83;;
15633;SDS011;14654;48.898;8.308;2022-09-12T02:39:14;9.33;;;8.60;;
15633;SDS011;14654;48.898;8.308;2022-09-12T02:41:44;9.30;;;8.60;;
15633;SDS011;14654;48.898;8.308;2022-09-12T02:44:17;9.27;;;8.47;;
15633;SDS011;14654;48.898;8.308;2022-09-12T02:46:43;9.37;;;8.57;;
15633;SDS011;14654;48.898;8.308;2022-09-12T02:49:12;9.43;;;8.33;;
15633;SDS011;14654;48.898;8.308;2022-09-12T02:51:39;8.87;;;8.07;;
15633;SDS011;14654;48.898;8.308;2022-09-12T02:54:05;9.23;;;8.43;;
15633;SDS011;14654;48.898;8.308;2022-09-12T02:56:31;9.73;;;8.93;;
15633;SDS011;14654;48.898;8.308;2022-09-12T02:59:01;8.83;;;8.13;;
15633;SDS011;14654;48.898;8.308;2022-09-12T03:09:51;8.30;;;7.70;;
15633;SDS011;14654;48.898;8.308;2022-09-12T03:12:23;8.70;;;7.93;;
15633;SDS011;14654;48.898;8.308;2022-09-12T03:22:44;7.10;;;6.60;;
15633;SDS011;14654;48.898;8.308;2022-09-12T03:25:27;7.33;;;6.83;;
15633;SDS011;14654;48.898;8.308;2022-09-12T03:28:02;7.40;;;6.90;;
15633;SDS011;14654;48.898;8.308;2022-09-12T03:30:42;7.70;;;7.03;;
15633;SDS011;14654;48.898;8.308;2022-09-12T03:33:10;7.40;;;6.90;;
15633;SDS011;14654;48.898;8.308;2022-09-12T03:35:36;7.80;;;7.20;;
15633;SDS011;14654;48.898;8.308;2022-09-12T03:38:02;7.73;;;7.13;;
15633;SDS011;14654;48.898;8.308;2022-09-12T03:40:27;7.90;;;7.30;;
15633;SDS011;14654;48.898;8.308;2022-09-12T03:42:52;7.60;;;7.00;;
15633;SDS011;14654;48.898;8.308;2022-09-12T03:45:18;7.53;;;7.03;;
15633;SDS011;14654;48.898;8.308;2022-09-12T03:47:43;8.50;;;7.83;;
15633;SDS011;14654;48.898;8.308;2022-09-12T03:50:08;8.40;;;7.70;;
15633;SDS011;14654;48.898;8.308;2022-09-12T03:52:34;7.93;;;7.33;;
15633;SDS011;14654;48.898;8.308;2022-09-12T03:54:59;8.53;;;7.73;;
15633;SDS011;14654;48.898;8.308;2022-09-12T03:57:25;8.67;;;7.87;;
15633;SDS011;14654;48.898;8.308;2022-09-12T03:59:50;8.47;;;7.83;;
15633;SDS011;14654;48.898;8.308;2022-09-12T04:02:16;8.53;;;7.83;;
15633;SDS011;14654;48.898;8.308;2022-09-12T04:04:41;8.60;;;7.90;;
15633;SDS011;14654;48.898;8.308;2022-09-12T04:07:08;8.70;;;8.00;;
15633;SDS011;14654;48.898;8.308;2022-09-12T04:09:33;8.67;;;7.97;;
15633;SDS011;14654;48.898;8.308;2022-09-12T04:11:59;8.70;;;8.00;;
15633;SDS011;14654;48.898;8.308;2022-09-12T04:14:24;8.33;;;7.70;;
15633;SDS011;14654;48.898;8.308;2022-09-12T04:16:50;8.93;;;8.23;;
15633;SDS011;14654;48.898;8.308;2022-09-12T04:19:15;8.80;;;8.10;;
15633;SDS011;14654;48.898;8.308;2022-09-12T04:21:40;8.00;;;7.30;;
15633;SDS011;14654;48.898;8.308;2022-09-12T04:24:05;8.77;;;8.13;;
15633;SDS011;14654;48.898;8.308;2022-09-12T04:26:31;8.17;;;7.57;;
15633;SDS011;14654;48.898;8.308;2022-09-12T04:28:56;8.53;;;7.93;;
15633;SDS011;14654;48.898;8.308;2022-09-12T04:31:22;8.60;;;7.80;;
15633;SDS011;14654;48.898;8.308;2022-09-12T04:33:55;8.20;;;7.47;;
15633;SDS011;14654;48.898;8.308;2022-09-12T04:36:22;8.30;;;7.60;;
15633;SDS011;14654;48.898;8.308;2022-09-12T04:38:48;10.63;;;7.87;;
15633;SDS011;14654;48.898;8.308;2022-09-12T04:41:18;8.30;;;7.70;;
15633;SDS011;14654;48.898;8.308;2022-09-12T04:43:50;8.70;;;7.93;;
15633;SDS011;14654;48.898;8.308;2022-09-12T04:46:17;8.87;;;7.97;;
15633;SDS011;14654;48.898;8.308;2022-09-12T04:48:44;8.60;;;7.90;;
15633;SDS011;14654;48.898;8.308;2022-09-12T04:51:14;9.00;;;8.30;;
15633;SDS011;14654;48.898;8.308;2022-09-12T04:53:41;9.57;;;8.70;;
15633;SDS011;14654;48.898;8.308;2022-09-12T04:56:08;8.47;;;7.87;;
15633;SDS011;14654;48.898;8.308;2022-09-12T04:58:35;8.93;;;8.23;;
15633;SDS011;14654;48.898;8.308;2022-09-12T05:01:12;9.03;;;8.33;;
15633;SDS011;14654;48.898;8.308;2022-09-12T05:03:39;9.40;;;8.60;;
15633;SDS011;14654;48.898;8.308;2022-09-12T05:06:08;8.63;;;7.93;;
15633;SDS011;14654;48.898;8.308;2022-09-12T05:08:35;9.30;;;8.50;;
15633;SDS011;14654;48.898;8.308;2022-09-12T05:11:05;8.67;;;7.90;;
15633;SDS011;14654;48.898;8.308;2022-09-12T05:13:32;8.80;;;8.07;;
15633;SDS011;14654;48.898;8.308;2022-09-12T05:15:58;8.73;;;7.93;;
15633;SDS011;14654;48.898;8.308;2022-09-12T05:18:25;9.03;;;8.23;;
15633;SDS011;14654;48.898;8.308;2022-09-12T05:20:51;7.93;;;7.33;;
15633;SDS011;14654;48.898;8.308;2022-09-12T05:23:20;7.60;;;7.00;;
15633;SDS011;14654;48.898;8.308;2022-09-12T05:25:52;8.27;;;7.63;;
15633;SDS011;14654;48.898;8.308;2022-09-12T05:28:20;8.50;;;7.90;;
15633;SDS011;14654;48.898;8.308;2022-09-12T05:30:46;8.63;;;7.90;;
15633;SDS011;14654;48.898;8.308;2022-09-12T05:33:12;7.83;;;7.23;;
15633;SDS011;14654;48.898;8.308;2022-09-12T05:35:38;6.80;;;6.30;;
15633;SDS011;14654;48.898;8.308;2022-09-12T05:38:04;7.77;;;7.20;;
15633;SDS011;14654;48.898;8.308;2022-09-12T05:40:30;7.10;;;6.60;;
15633;SDS011;14654;48.898;8.308;2022-09-12T05:42:56;6.50;;;6.07;;
15633;SDS011;14654;48.898;8.308;2022-09-12T05:45:21;6.83;;;6.33;;
15633;SDS011;14654;48.898;8.308;2022-09-12T05:47:47;7.67;;;7.07;;
15633;SDS011;14654;48.898;8.308;2022-09-12T05:50:13;8.27;;;7.57;;
15633;SDS011;14654;48.898;8.308;2022-09-12T05:52:38;7.67;;;7.03;;
15633;SDS011;14654;48.898;8.308;2022-09-12T05:55:04;7.10;;;6.60;;
15633;SDS011;14654;48.898;8.308;2022-09-12T05:57:29;7.10;;;6.50;;
15633;SDS011;14654;48.898;8.308;2022-09-12T05:59:55;6.80;;;6.17;;
15633;SDS011;14654;48.898;8.308;2022-09-12T06:02:20;6.80;;;6.30;;
15633;SDS011;14654;48.898;8.308;2022-09-12T06:04:46;7.17;;;6.60;;
15633;SDS011;14654;48.898;8.308;2022-09-12T06:07:11;7.50;;;6.80;;
15633;SDS011;14654;48.898;8.308;2022-09-12T06:09:37;8.00;;;7.30;;
15633;SDS011;14654;48.898;8.308;2022-09-12T06:12:03;7.80;;;7.20;;
15633;SDS011;14654;48.898;8.308;2022-09-12T06:14:28;7.70;;;7.00;;
15633;SDS011;14654;48.898;8.308;2022-09-12T06:16:53;6.83;;;6.33;;
15633;SDS011;14654;48.898;8.308;2022-09-12T06:19:19;7.00;;;6.30;;
15633;SDS011;14654;48.898;8.308;2022-09-12T06:21:46;7.20;;;6.60;;
15633;SDS011;14654;48.898;8.308;2022-09-12T06:24:13;7.23;;;6.63;;
15633;SDS011;14654;48.898;8.308;2022-09-12T06:26:40;8.57;;;7.77;;
15633;SDS011;14654;48.898;8.308;2022-09-12T06:29:06;8.10;;;7.50;;
15633;SDS011;14654;48.898;8.308;2022-09-12T06:31:34;7.63;;;7.03;;
15633;SDS011;14654;48.898;8.308;2022-09-12T06:34:01;7.90;;;7.30;;
15633;SDS011;14654;48.898;8.308;2022-09-12T06:36:29;7.43;;;6.83;;
15633;SDS011;14654;48.898;8.308;2022-09-12T06:38:57;7.13;;;6.63;;
15633;SDS011;14654;48.898;8.308;2022-09-12T06:41:27;7.03;;;6.43;;
15633;SDS011;14654;48.898;8.308;2022-09-12T06:43:55;7.33;;;6.83;;
15633;SDS011;14654;48.898;8.308;2022-09-12T06:46:21;7.60;;;7.00;;
15633;SDS011;14654;48.898;8.308;2022-09-12T06:48:49;7.53;;;6.93;;
15633;SDS011;14654;48.898;8.308;2022-09-12T06:51:15;8.03;;;7.43;;
15633;SDS011;14654;48.898;8.308;2022-09-12T06:53:43;9.13;;;8.43;;
15633;SDS011;14654;48.898;8.308;2022-09-12T06:56:10;8.47;;;7.67;;
15633;SDS011;14654;48.898;8.308;2022-09-12T06:58:37;8.37;;;7.70;;
15633;SDS011;14654;48.898;8.308;2022-09-12T07:01:13;7.37;;;6.70;;
15633;SDS011;14654;48.898;8.308;2022-09-12T07:03:40;8.07;;;7.37;;
15633;SDS011;14654;48.898;8.308;2022-09-12T07:06:08;8.13;;;7.53;;
15633;SDS011;14654;48.898;8.308;2022-09-12T07:08:38;7.60;;;6.90;;
15633;SDS011;14654;48.898;8.308;2022-09-12T07:13:39;7.43;;;6.87;;
15633;SDS011;14654;48.898;8.308;2022-09-12T07:16:06;7.40;;;6.70;;
15633;SDS011;14654;48.898;8.308;2022-09-12T07:18:32;7.47;;;6.87;;
15633;SDS011;14654;48.898;8.308;2022-09-12T07:20:59;7.73;;;7.13;;
15633;SDS011;14654;48.898;8.308;2022-09-12T07:23:44;8.57;;;7.97;;
15633;SDS011;14654;48.898;8.308;2022-09-12T07:26:10;9.57;;;8.77;;
15633;SDS011;14654;48.898;8.308;2022-09-12T07:28:37;9.77;;;8.97;;
15633;SDS011;14654;48.898;8.308;2022-09-12T07:31:07;8.67;;;7.90;;
15633;SDS011;14654;48.898;8.308;2022-09-12T07:33:38;9.57;;;8.67;;
15633;SDS011;14654;48.898;8.308;2022-09-12T07:36:05;9.10;;;8.40;;
15633;SDS011;14654;48.898;8.308;2022-09-12T07:38:34;9.63;;;8.83;;
15633;SDS011;14654;48.898;8.308;2022-09-12T07:41:00;13.43;;;8.87;;
15633;SDS011;14654;48.898;8.308;2022-09-12T07:43:26;8.67;;;7.80;;
15633;SDS011;14654;48.898;8.308;2022-09-12T07:45:57;7.90;;;7.30;;
15633;SDS011;14654;48.898;8.308;2022-09-12T07:48:22;8.30;;;7.60;;
15633;SDS011;14654;48.898;8.308;2022-09-12T07:50:55;7.73;;;7.13;;
15633;SDS011;14654;48.898;8.308;2022-09-12T07:53:22;7.90;;;7.30;;
15633;SDS011;14654;48.898;8.308;2022-09-12T07:55:55;7.57;;;7.07;;
15633;SDS011;14654;48.898;8.308;2022-09-12T07:58:23;7.97;;;7.33;;
15633;SDS011;14654;48.898;8.308;2022-09-12T08:00:49;7.67;;;7.07;;
15633;SDS011;14654;48.898;8.308;2022-09-12T08:03:15;7.37;;;6.87;;
15633;SDS011;14654;48.898;8.308;2022-09-12T08:05:40;7.77;;;7.17;;
15633;SDS011;14654;48.898;8.308;2022-09-12T08:08:06;8.33;;;7.60;;
15633;SDS011;14654;48.898;8.308;2022-09-12T08:10:31;8.57;;;7.77;;
15633;SDS011;14654;48.898;8.308;2022-09-12T08:12:57;7.80;;;7.10;;
15633;SDS011;14654;48.898;8.308;2022-09-12T08:15:23;7.70;;;7.13;;
15633;SDS011;14654;48.898;8.308;2022-09-12T08:17:48;8.20;;;7.50;;
15633;SDS011;14654;48.898;8.308;2022-09-12T08:20:14;7.60;;;7.10;;
15633;SDS011;14654;48.898;8.308;2022-09-12T08:22:39;8.77;;;7.97;;
15633;SDS011;14654;48.898;8.308;2022-09-12T08:25:05;7.73;;;7.17;;
15633;SDS011;14654;48.898;8.308;2022-09-12T08:27:31;7.97;;;7.37;;
15633;SDS011;14654;48.898;8.308;2022-09-12T08:29:56;7.20;;;6.70;;
15633;SDS011;14654;48.898;8.308;2022-09-12T08:32:21;8.00;;;7.13;;
15633;SDS011;14654;48.898;8.308;2022-09-12T08:34:47;7.50;;;6.93;;
15633;SDS011;14654;48.898;8.308;2022-09-12T08:37:12;7.83;;;7.23;;
15633;SDS011;14654;48.898;8.308;2022-09-12T08:39:37;8.67;;;8.07;;
15633;SDS011;14654;48.898;8.308;2022-09-12T08:42:04;8.40;;;7.70;;
15633;SDS011;14654;48.898;8.308;2022-09-12T08:47:30;7.93;;;7.23;;
15633;SDS011;14654;48.898;8.308;2022-09-12T08:57:59;8.10;;;7.30;;
15633;SDS011;14654;48.898;8.308;2022-09-12T09:00:33;8.20;;;7.40;;
15633;SDS011;14654;48.898;8.308;2022-09-12T09:10:58;7.30;;;6.70;;
15633;SDS011;14654;48.898;8.308;2022-09-12T09:13:52;6.73;;;6.17;;
15633;SDS011;14654;48.898;8.308;2022-09-12T09:16:59;6.60;;;6.10;;
15633;SDS011;14654;48.898;8.308;2022-09-12T09:19:30;7.03;;;6.53;;
15633;SDS011;14654;48.898;8.308;2022-09-12T09:22:02;6.90;;;6.40;;
15633;SDS011;14654;48.898;8.308;2022-09-12T09:24:50;7.20;;;6.43;;
15633;SDS011;14654;48.898;8.308;2022-09-12T09:29:54;6.80;;;6.30;;
15633;SDS011;14654;48.898;8.308;2022-09-12T09:32:25;5.70;;;5.20;;
15633;SDS011;14654;48.898;8.308;2022-09-12T09:34:50;6.63;;;6.13;;
15633;SDS011;14654;48.898;8.308;2022-09-12T09:37:20;5.87;;;5.47;;
15633;SDS011;14654;48.898;8.308;2022-09-12T09:42:53;5.93;;;5.53;;
15633;SDS011;14654;48.898;8.308;2022-09-12T09:45:30;6.03;;;5.53;;
15633;SDS011;14654;48.898;8.308;2022-09-12T09:48:00;6.27;;;5.77;;
15633;SDS011;14654;48.898;8.308;2022-09-12T09:50:37;5.60;;;5.20;;
15633;SDS011;14654;48.898;8.308;2022-09-12T09:53:03;5.90;;;5.43;;
15633;SDS011;14654;48.898;8.308;2022-09-12T09:55:35;4.90;;;4.60;;
15633;SDS011;14654;48.898;8.308;2022-09-12T09:58:05;5.63;;;5.13;;
15633;SDS011;14654;48.898;8.308;2022-09-12T10:00:31;5.67;;;5.17;;
15633;SDS011;14654;48.898;8.308;2022-09-12T10:05:48;6.23;;;5.70;;
15633;SDS011;14654;48.898;8.308;2022-09-12T10:14:00;5.47;;;5.10;;
15633;SDS011;14654;48.898;8.308;2022-09-12T10:16:29;5.83;;;5.37;;
15633;SDS011;14654;48.898;8.308;2022-09-12T10:19:19;5.93;;;5.43;;
15633;SDS011;14654;48.898;8.308;2022-09-12T10:21:52;5.20;;;4.80;;
15633;SDS011;14654;48.898;8.308;2022-09-12T10:24:23;5.43;;;5.03;;
15633;SDS011;14654;48.898;8.308;2022-09-12T10:26:53;5.60;;;5.20;;
15633;SDS011;14654;48.898;8.308;2022-09-12T10:29:25;5.40;;;4.90;;
15633;SDS011;14654;48.898;8.308;2022-09-12T10:31:56;4.70;;;4.40;;
15633;SDS011;14654;48.898;8.308;2022-09-12T10:37:07;5.03;;;4.63;;
15633;SDS011;14654;48.898;8.308;2022-09-12T10:39:39;4.70;;;4.33;;
15633;SDS011;14654;48.898;8.308;2022-09-12T10:42:05;4.63;;;4.33;;
15633;SDS011;14654;48.898;8.308;2022-09-12T10:44:32;4.33;;;4.03;;
15633;SDS011;14654;48.898;8.308;2022-09-12T10:46:59;4.97;;;4.57;;
15633;SDS011;14654;48.898;8.308;2022-09-12T10:49:43;4.43;;;4.13;;
15633;SDS011;14654;48.898;8.308;2022-09-12T10:52:22;5.00;;;4.60;;
15633;SDS011;14654;48.898;8.308;2022-09-12T10:55:31;5.00;;;4.40;;
15633;SDS011;14654;48.898;8.308;2022-09-12T11:00:21;4.13;;;3.83;;
15633;SDS011;14654;48.898;8.308;2022-09-12T11:16:24;4.13;;;3.83;;
15633;SDS011;14654;48.898;8.308;2022-09-12T11:25:02;4.10;;;3.80;;
15633;SDS011;14654;48.898;8.308;2022-09-12T11:27:41;4.03;;;3.63;;
15633;SDS011;14654;48.898;8.308;2022-09-12T11:30:29;4.40;;;3.97;;
15633;SDS011;14654;48.898;8.308;2022-09-12T11:35:32;6.07;;;3.67;;
15633;SDS011;14654;48.898;8.308;2022-09-12T11:40:28;3.97;;;3.67;;
15633;SDS011;14654;48.898;8.308;2022-09-12T11:45:58;4.50;;;4.10;;
15633;SDS011;14654;48.898;8.308;2022-09-12T11:51:02;3.90;;;3.60;;
15633;SDS011;14654;48.898;8.308;2022-09-12T11:53:32;3.83;;;3.63;;
15633;SDS011;14654;48.898;8.308;2022-09-12T11:56:24;3.67;;;3.37;;
15633;SDS011;14654;48.898;8.308;2022-09-12T11:58:54;3.77;;;3.47;;
15633;SDS011;14654;48.898;8.308;2022-09-12T12:01:28;4.47;;;4.07;;
15633;SDS011;14654;48.898;8.308;2022-09-12T12:03:57;3.63;;;3.43;;
15633;SDS011;14654;48.898;8.308;2022-09-12T12:06:30;4.23;;;3.93;;
15633;SDS011;14654;48.898;8.308;2022-09-12T12:08:57;4.23;;;3.83;;
15633;SDS011;14654;48.898;8.308;2022-09-12T12:11:26;4.63;;;4.00;;
15633;SDS011;14654;48.898;8.308;2022-09-12T12:14:02;3.67;;;3.47;;
15633;SDS011;14654;48.898;8.308;2022-09-12T12:16:30;3.60;;;3.30;;
15633;SDS011;14654;48.898;8.308;2022-09-12T12:19:43;3.97;;;3.57;;
15633;SDS011;14654;48.898;8.308;2022-09-12T12:21:49;4.37;;;3.97;;
15633;SDS011;14654;48.898;8.308;2022-09-12T12:34:26;3.60;;;3.27;;
15633;SDS011;14654;48.898;8.308;2022-09-12T12:36:54;3.30;;;3.10;;
15633;SDS011;14654;48.898;8.308;2022-09-12T12:41:58;3.57;;;3.27;;
15633;SDS011;14654;48.898;8.308;2022-09-12T12:47:54;3.90;;;3.60;;
15633;SDS011;14654;48.898;8.308;2022-09-12T12:55:14;3.37;;;3.17;;
15633;SDS011;14654;48.898;8.308;2022-09-12T13:03:27;3.50;;;3.20;;
15633;SDS011;14654;48.898;8.308;2022-09-12T13:05:48;3.40;;;3.20;;
15633;SDS011;14654;48.898;8.308;2022-09-12T13:10:55;3.70;;;3.40;;
15633;SDS011;14654;48.898;8.308;2022-09-12T13:13:31;3.43;;;3.13;;
15633;SDS011;14654;48.898;8.308;2022-09-12T13:16:02;3.90;;;3.60;;
15633;SDS011;14654;48.898;8.308;2022-09-12T13:18:28;3.60;;;3.30;;
15633;SDS011;14654;48.898;8.308;2022-09-12T13:21:18;3.70;;;3.40;;
15633;SDS011;14654;48.898;8.308;2022-09-12T13:26:46;3.77;;;3.47;;
15633;SDS011;14654;48.898;8.308;2022-09-12T13:29:18;3.80;;;3.50;;
15633;SDS011;14654;48.898;8.308;2022-09-12T13:31:47;3.50;;;3.20;;
15633;SDS011;14654;48.898;8.308;2022-09-12T13:34:21;3.90;;;3.43;;
15633;SDS011;14654;48.898;8.308;2022-09-12T13:43:22;3.57;;;3.30;;
15633;SDS011;14654;48.898;8.308;2022-09-12T13:46:00;3.30;;;3.10;;
15633;SDS011;14654;48.898;8.308;2022-09-12T13:48:25;2.80;;;2.60;;
15633;SDS011;14654;48.898;8.308;2022-09-12T13:50:52;3.23;;;3.03;;
15633;SDS011;14654;48.898;8.308;2022-09-12T13:53:22;3.23;;;3.00;;
15633;SDS011;14654;48.898;8.308;2022-09-12T13:55:54;3.40;;;2.93;;
15633;SDS011;14654;48.898;8.308;2022-09-12T13:58:23;3.20;;;2.90;;
15633;SDS011;14654;48.898;8.308;2022-09-12T14:03:53;5.90;;;3.90;;
15633;SDS011;14654;48.898;8.308;2022-09-12T14:06:42;3.57;;;3.27;;
15633;SDS011;14654;48.898;8.308;2022-09-12T14:09:18;3.03;;;2.83;;
15633;SDS011;14654;48.898;8.308;2022-09-12T14:11:47;3.13;;;2.93;;
15633;SDS011;14654;48.898;8.308;2022-09-12T14:14:35;2.93;;;2.73;;
15633;SDS011;14654;48.898;8.308;2022-09-12T14:17:46;3.67;;;3.27;;
15633;SDS011;14654;48.898;8.308;2022-09-12T14:20:04;3.50;;;3.20;;
15633;SDS011;14654;48.898;8.308;2022-09-12T14:22:34;3.17;;;2.90;;
15633;SDS011;14654;48.898;8.308;2022-09-12T14:25:00;3.40;;;3.07;;
15633;SDS011;14654;48.898;8.308;2022-09-12T14:27:37;3.57;;;3.27;;
15633;SDS011;14654;48.898;8.308;2022-09-12T14:30:19;3.83;;;3.07;;
15633;SDS011;14654;48.898;8.308;2022-09-12T14:35:28;3.00;;;2.80;;
15633;SDS011;14654;48.898;8.308;2022-09-12T14:37:53;3.10;;;2.90;;
15633;SDS011;14654;48.898;8.308;2022-09-12T14:40:20;3.53;;;3.23;;
15633;SDS011;14654;48.898;8.308;2022-09-12T14:42:48;3.00;;;2.80;;
15633;SDS011;14654;48.898;8.308;2022-09-12T14:45:17;2.80;;;2.60;;
15633;SDS011;14654;48.898;8.308;2022-09-12T14:47:53;3.23;;;3.00;;
15633;SDS011;14654;48.898;8.308;2022-09-12T14:50:21;3.00;;;2.80;;
15633;SDS011;14654;48.898;8.308;2022-09-12T14:53:36;2.80;;;2.60;;
15633;SDS011;14654;48.898;8.308;2022-09-12T14:55:42;3.90;;;2.87;;
15633;SDS011;14654;48.898;8.308;2022-09-12T14:58:23;3.27;;;3.07;;
15633;SDS011;14654;48.898;8.308;2022-09-12T15:00:55;2.80;;;2.60;;
15633;SDS011;14654;48.898;8.308;2022-09-12T15:03:28;3.10;;;2.90;;
15633;SDS011;14654;48.898;8.308;2022-09-12T15:06:00;2.30;;;2.20;;
15633;SDS011;14654;48.898;8.308;2022-09-12T15:08:28;2.53;;;2.40;;
15633;SDS011;14654;48.898;8.308;2022-09-12T15:10:54;2.97;;;2.67;;
15633;SDS011;14654;48.898;8.308;2022-09-12T15:13:22;3.00;;;2.80;;
15633;SDS011;14654;48.898;8.308;2022-09-12T15:18:20;2.37;;;2.20;;
15633;SDS011;14654;48.898;8.308;2022-09-12T15:20:48;2.60;;;2.40;;
15633;SDS011;14654;48.898;8.308;2022-09-12T15:25:44;2.80;;;2.27;;
15633;SDS011;14654;48.898;8.308;2022-09-12T15:28:19;2.60;;;2.40;;
15633;SDS011;14654;48.898;8.308;2022-09-12T15:30:46;2.70;;;2.50;;
15633;SDS011;14654;48.898;8.308;2022-09-12T15:33:17;2.67;;;2.47;;
15633;SDS011;14654;48.898;8.308;2022-09-12T15:35:44;2.80;;;2.50;;
15633;SDS011;14654;48.898;8.308;2022-09-12T15:38:10;2.77;;;2.57;;
15633;SDS011;14654;48.898;8.308;2022-09-12T15:40:35;3.50;;;2.60;;
15633;SDS011;14654;48.898;8.308;2022-09-12T15:43:00;2.63;;;2.43;;
15633;SDS011;14654;48.898;8.308;2022-09-12T15:45:28;2.93;;;2.63;;
15633;SDS011;14654;48.898;8.308;2022-09-12T15:47:58;2.87;;;2.67;;
15633;SDS011;14654;48.898;8.308;2022-09-12T15:50:24;2.70;;;2.50;;
15633;SDS011;14654;48.898;8.308;2022-09-12T15:52:50;2.63;;;2.43;;
15633;SDS011;14654;48.898;8.308;2022-09-12T15:55:20;3.10;;;2.77;;
15633;SDS011;14654;48.898;8.308;2022-09-12T15:57:47;2.43;;;2.23;;
15633;SDS011;14654;48.898;8.308;2022-09-12T16:00:13;2.73;;;2.53;;
15633;SDS011;14654;48.898;8.308;2022-09-12T16:02:39;3.10;;;2.80;;
15633;SDS011;14654;48.898;8.308;2022-09-12T16:05:05;3.47;;;2.63;;
15633;SDS011;14654;48.898;8.308;2022-09-12T16:07:38;2.40;;;2.20;;
15633;SDS011;14654;48.898;8.308;2022-09-12T16:10:03;2.83;;;2.50;;
15633;SDS011;14654;48.898;8.308;2022-09-12T16:12:30;2.80;;;2.60;;
15633;SDS011;14654;48.898;8.308;2022-09-12T16:14:55;2.60;;;2.40;;
15633;SDS011;14654;48.898;8.308;2022-09-12T16:17:21;2.73;;;2.53;;
15633;SDS011;14654;48.898;8.308;2022-09-12T16:19:46;2.50;;;2.30;;
15633;SDS011;14654;48.898;8.308;2022-09-12T16:22:12;2.57;;;2.37;;
15633;SDS011;14654;48.898;8.308;2022-09-12T16:24:37;2.87;;;2.60;;
15633;SDS011;14654;48.898;8.308;2022-09-12T16:27:03;2.47;;;2.27;;
15633;SDS011;14654;48.898;8.308;2022-09-12T16:29:29;2.60;;;2.40;;
15633;SDS011;14654;48.898;8.308;2022-09-12T16:31:54;2.60;;;2.40;;
15633;SDS011;14654;48.898;8.308;2022-09-12T16:34:19;2.63;;;2.47;;
15633;SDS011;14654;48.898;8.308;2022-09-12T16:36:44;2.57;;;2.37;;
15633;SDS011;14654;48.898;8.308;2022-09-12T16:39:11;2.43;;;2.20;;
15633;SDS011;14654;48.898;8.308;2022-09-12T16:41:36;2.60;;;2.40;;
15633;SDS011;14654;48.898;8.308;2022-09-12T16:44:01;2.47;;;2.27;;
15633;SDS011;14654;48.898;8.308;2022-09-12T16:46:27;2.37;;;2.23;;
15633;SDS011;14654;48.898;8.308;2022-09-12T16:48:54;2.43;;;2.23;;
15633;SDS011;14654;48.898;8.308;2022-09-12T16:51:21;2.33;;;2.23;;
15633;SDS011;14654;48.898;8.308;2022-09-12T16:53:49;2.30;;;2.10;;
15633;SDS011;14654;48.898;8.308;2022-09-12T16:56:14;2.37;;;2.27;;
15633;SDS011;14654;48.898;8.308;2022-09-12T16:58:40;2.17;;;2.07;;
15633;SDS011;14654;48.898;8.308;2022-09-12T17:01:10;2.87;;;2.67;;
15633;SDS011;14654;48.898;8.308;2022-09-12T17:03:37;2.70;;;2.50;;
15633;SDS011;14654;48.898;8.308;2022-09-12T17:06:06;3.00;;;2.50;;
15633;SDS011;14654;48.898;8.308;2022-09-12T17:08:43;2.00;;;1.90;;
15633;SDS011;14654;48.898;8.308;2022-09-12T17:11:18;2.70;;;2.50;;
15633;SDS011;14654;48.898;8.308;2022-09-12T17:13:48;2.43;;;2.23;;
15633;SDS011;14654;48.898;8.308;2022-09-12T17:16:15;2.40;;;2.20;;
15633;SDS011;14654;48.898;8.308;2022-09-12T17:18:40;2.53;;;2.30;;
15633;SDS011;14654;48.898;8.308;2022-09-12T17:21:06;2.63;;;2.33;;
15633;SDS011;14654;48.898;8.308;2022-09-12T17:23:33;2.50;;;2.30;;
15633;SDS011;14654;48.898;8.308;2022-09-12T17:25:58;3.10;;;2.30;;
15633;SDS011;14654;48.898;8.308;2022-09-12T17:28:24;4.10;;;2.70;;
15633;SDS011;14654;48.898;8.308;2022-09-12T17:30:53;2.67;;;2.47;;
15633;SDS011;14654;48.898;8.308;2022-09-12T17:33:19;4.00;;;2.10;;
15633;SDS011;14654;48.898;8.308;2022-09-12T17:35:45;3.67;;;2.40;;
15633;SDS011;14654;48.898;8.308;2022-09-12T17:38:10;2.10;;;1.90;;
15633;SDS011;14654;48.898;8.308;2022-09-12T17:40:35;2.27;;;2.07;;
15633;SDS011;14654;48.898;8.308;2022-09-12T17:43:01;2.20;;;2.00;;
15633;SDS011;14654;48.898;8.308;2022-09-12T17:45:26;2.20;;;2.10;;
15633;SDS011;14654;48.898;8.308;2022-09-12T17:47:52;2.20;;;2.10;;
15633;SDS011;14654;48.898;8.308;2022-09-12T17:50:18;2.20;;;2.00;;
15633;SDS011;14654;48.898;8.308;2022-09-12T17:52:44;2.43;;;2.23;;
15633;SDS011;14654;48.898;8.308;2022-09-12T17:55:09;2.40;;;2.20;;